^^
Station Historical Data
 
Daily Summary for February 24, 2018 Units:  English    Metric   Both
« Previous Day
Next Day »
Daily Weekly Monthly Yearly Custom
  Current: High: Low: Average:
Temperature: 21.1 °F 21.1 °F 15.0 °F 18.1 °F
Dew Point: 14.7 °F 16.5 °F 8.0 °F 13.5 °F
Humidity: 76% 90% 72% 82%
Wind Speed: 0.0mph 5.0mph 0.0mph 0.6mph
Wind Gust: 0.0mph 6.0mph - -
WindCalm - - SSW
Pressure: 30.35 in 30.35 in 30.32 in -
Precipitation: 0.00 in      
Historical Graphs
 
 
Tabular Data for February 24, 2018
Time Temperature Dew Point Pressure Wind Wind Speed Wind Gust Humidity Rainfall Rate (Hourly) solar Conditions
00:01 18.2 °F 15.5 °F 30.34 in Calm     89% 0.00 in 0.00 W/m2
00:06 18.4 °F 15.7 °F 30.34 in Calm     89% 0.00 in 0.00 W/m2
00:11 18.5 °F 15.8 °F 30.34 in Calm     89% 0.00 in 0.00 W/m2
00:16 18.6 °F 16.2 °F 30.34 in Calm     90% 0.00 in 0.00 W/m2
00:21 18.6 °F 15.9 °F 30.34 in Calm     89% 0.00 in 0.00 W/m2
00:26 18.7 °F 16.0 °F 30.33 in Calm     89% 0.00 in 0.00 W/m2
00:31 18.7 °F 16.0 °F 30.33 in Calm     89% 0.00 in 0.00 W/m2
00:36 18.6 °F 15.9 °F 30.33 in Calm     89% 0.00 in 0.00 W/m2
00:41 18.5 °F 15.8 °F 30.33 in Calm     89% 0.00 in 0.00 W/m2
00:47 18.3 °F 15.6 °F 30.33 in Calm     89% 0.00 in 0.00 W/m2
00:52 18.2 °F 15.5 °F 30.33 in Calm     89% 0.00 in 0.00 W/m2
00:57 18.3 °F 15.6 °F 30.33 in Calm     89% 0.00 in 0.00 W/m2
01:02 18.3 °F 15.6 °F 30.33 in Calm     89% 0.00 in 0.00 W/m2
01:07 18.4 °F 15.7 °F 30.33 in Calm     89% 0.00 in 0.00 W/m2
01:12 18.5 °F 15.8 °F 30.33 in Calm     89% 0.00 in 0.00 W/m2
01:17 18.7 °F 16.0 °F 30.34 in Calm     89% 0.00 in 0.00 W/m2
01:22 18.8 °F 16.1 °F 30.34 in Calm     89% 0.00 in 0.00 W/m2
01:27 18.9 °F 16.2 °F 30.34 in Calm     89% 0.00 in 0.00 W/m2
01:32 19.1 °F 16.4 °F 30.34 in Calm     89% 0.00 in 0.00 W/m2
01:37 19.2 °F 16.5 °F 30.34 in Calm     89% 0.00 in 0.00 W/m2
01:42 19.2 °F 16.2 °F 30.34 in Calm     88% 0.00 in 0.00 W/m2
01:47 19.3 °F 16.3 °F 30.34 in Calm     88% 0.00 in 0.00 W/m2
01:53 19.3 °F 16.3 °F 30.34 in Calm     88% 0.00 in 0.00 W/m2
01:58 19.0 °F 16.0 °F 30.34 in Calm     88% 0.00 in 0.00 W/m2
02:02 18.8 °F 15.8 °F 30.34 in Calm     88% 0.00 in 0.00 W/m2
02:07 18.8 °F 15.8 °F 30.33 in Calm     88% 0.00 in 0.00 W/m2
02:12 18.7 °F 15.7 °F 30.34 in Calm     88% 0.00 in 0.00 W/m2
02:17 18.6 °F 15.6 °F 30.34 in Calm     88% 0.00 in 0.00 W/m2
02:22 18.6 °F 15.6 °F 30.34 in Calm     88% 0.00 in 0.00 W/m2
02:27 18.5 °F 15.6 °F 30.34 in Calm     88% 0.00 in 0.00 W/m2
02:32 18.4 °F 15.4 °F 30.34 in Calm     88% 0.00 in 0.00 W/m2
02:37 18.2 °F 15.2 °F 30.34 in Calm     88% 0.00 in 0.00 W/m2
02:42 18.0 °F 15.1 °F 30.34 in Calm     88% 0.00 in 0.00 W/m2
02:47 17.8 °F 14.6 °F 30.33 in Calm     87% 0.00 in 0.00 W/m2
02:52 17.6 °F 14.4 °F 30.33 in Calm     87% 0.00 in 0.00 W/m2
02:57 17.6 °F 14.4 °F 30.33 in Calm     87% 0.00 in 0.00 W/m2
03:02 17.5 °F 14.3 °F 30.33 in Calm     87% 0.00 in 0.00 W/m2
03:07 17.6 °F 14.4 °F 30.33 in Calm     87% 0.00 in 0.00 W/m2
03:12 17.6 °F 14.4 °F 30.33 in Calm     87% 0.00 in 0.00 W/m2
03:17 17.6 °F 14.4 °F 30.33 in Calm     87% 0.00 in 0.00 W/m2
03:22 17.5 °F 14.3 °F 30.33 in Calm     87% 0.00 in 0.00 W/m2
03:27 17.4 °F 13.9 °F 30.33 in Calm     86% 0.00 in 0.00 W/m2
03:32 17.2 °F 13.7 °F 30.33 in Calm     86% 0.00 in 0.00 W/m2
03:37 17.1 °F 13.6 °F 30.33 in Calm     86% 0.00 in 0.00 W/m2
03:42 17.0 °F 13.5 °F 30.33 in Calm     86% 0.00 in 0.00 W/m2
03:47 17.0 °F 13.5 °F 30.33 in Calm     86% 0.00 in 0.00 W/m2
03:52 17.1 °F 13.6 °F 30.32 in Calm     86% 0.00 in 0.00 W/m2
03:57 17.2 °F 13.7 °F 30.33 in SSW 2.0 mph 2.0 mph 86% 0.00 in 0.00 W/m2
04:02 17.3 °F 13.8 °F 30.33 in SSW 1.0 mph 2.0 mph 86% 0.00 in 0.00 W/m2
04:08 17.4 °F 13.7 °F 30.33 in SSW 1.0 mph 2.0 mph 85% 0.00 in 0.00 W/m2
04:13 17.3 °F 13.6 °F 30.33 in SSW 4.0 mph 5.0 mph 85% 0.00 in 0.00 W/m2
04:18 17.2 °F 13.5 °F 30.33 in SSW 2.0 mph 5.0 mph 85% 0.00 in 0.00 W/m2
04:23 17.1 °F 13.4 °F 30.33 in SSW 1.0 mph 5.0 mph 85% 0.00 in 0.00 W/m2
04:28 17.1 °F 13.1 °F 30.33 in SSW 3.0 mph 3.0 mph 84% 0.00 in 0.00 W/m2
04:33 17.0 °F 13.0 °F 30.33 in Calm   3.0 mph 84% 0.00 in 0.00 W/m2
04:38 17.0 °F 13.0 °F 30.33 in SSW 2.0 mph 3.0 mph 84% 0.00 in 0.00 W/m2
04:43 17.0 °F 13.0 °F 30.33 in SSW 3.0 mph 3.0 mph 84% 0.00 in 0.00 W/m2
04:48 17.1 °F 13.1 °F 30.33 in Calm   3.0 mph 84% 0.00 in 0.00 W/m2
04:53 17.1 °F 12.8 °F 30.33 in SSW 3.0 mph 5.0 mph 83% 0.00 in 0.00 W/m2
04:58 17.2 °F 12.9 °F 30.33 in SSW 3.0 mph 5.0 mph 83% 0.00 in 0.00 W/m2
05:03 17.3 °F 12.8 °F 30.33 in SSW 2.0 mph 5.0 mph 82% 0.00 in 0.00 W/m2
05:08 17.5 °F 12.7 °F 30.33 in SSW 1.0 mph 5.0 mph 81% 0.00 in 0.00 W/m2
05:13 17.6 °F 12.5 °F 30.33 in Calm   4.0 mph 80% 0.00 in 0.00 W/m2
05:19 17.6 °F 12.5 °F 30.33 in SSW 2.0 mph 4.0 mph 80% 0.00 in 0.00 W/m2
05:24 17.6 °F 12.5 °F 30.33 in Calm   4.0 mph 80% 0.00 in 0.00 W/m2
05:29 17.7 °F 12.6 °F 30.33 in SSW 2.0 mph 4.0 mph 80% 0.00 in 0.00 W/m2
05:34 17.9 °F 12.5 °F 30.33 in Calm   3.0 mph 79% 0.00 in 0.00 W/m2
05:39 18.0 °F 12.6 °F 30.33 in Calm   2.0 mph 79% 0.00 in 0.00 W/m2
05:44 18.0 °F 12.6 °F 30.33 in Calm     79% 0.00 in 0.00 W/m2
05:49 18.1 °F 12.4 °F 30.33 in SSW 2.0 mph 2.0 mph 78% 0.00 in 0.00 W/m2
05:54 18.2 °F 12.5 °F 30.33 in SSW 1.0 mph 3.0 mph 78% 0.00 in 0.00 W/m2
05:59 15.4 °F 8.6 °F 30.33 in Calm   2.0 mph 74% 0.00 in 0.00 W/m2
06:04 15.5 °F 8.4 °F 30.33 in Calm     73% 0.00 in 0.00 W/m2
06:09 15.4 °F 8.3 °F 30.33 in Calm     73% 0.00 in 0.00 W/m2
06:14 15.4 °F 8.3 °F 30.33 in Calm     73% 0.00 in 0.00 W/m2
06:19 15.1 °F 8.0 °F 30.33 in Calm     73% 0.00 in 0.00 W/m2
06:24 15.0 °F 8.2 °F 30.33 in Calm     74% 0.00 in 0.00 W/m2
06:30 15.2 °F 8.4 °F 30.33 in Calm     74% 0.00 in 0.00 W/m2
06:35 15.3 °F 8.5 °F 30.33 in Calm     74% 0.00 in 0.00 W/m2
06:40 18.3 °F 12.3 °F 30.33 in SSW 4.0 mph 4.0 mph 77% 0.00 in 0.00 W/m2
06:45 18.5 °F 12.2 °F 30.33 in Calm   3.0 mph 76% 0.00 in 0.00 W/m2
06:50 18.6 °F 12.3 °F 30.33 in SSW 1.0 mph 3.0 mph 76% 0.00 in 0.00 W/m2
06:55 18.6 °F 12.3 °F 30.33 in Calm   3.0 mph 76% 0.00 in 0.00 W/m2
07:00 18.6 °F 12.3 °F 30.33 in Calm     76% 0.00 in 0.00 W/m2
07:05 15.7 °F 8.3 °F 30.33 in Calm     72% 0.00 in 0.00 W/m2
07:10 18.6 °F 12.0 °F 30.34 in Calm   1.0 mph 75% 0.00 in 0.00 W/m2
07:15 18.7 °F 12.1 °F 30.34 in Calm   2.0 mph 75% 0.00 in 0.00 W/m2
07:20 18.8 °F 12.2 °F 30.34 in Calm   2.0 mph 75% 0.00 in 0.00 W/m2
07:25 18.8 °F 11.9 °F 30.34 in SSW 1.0 mph 4.0 mph 74% 0.00 in 0.00 W/m2
07:30 18.8 °F 11.9 °F 30.34 in SSW 2.0 mph 4.0 mph 74% 0.00 in 0.00 W/m2
07:35 18.9 °F 12.0 °F 30.34 in SSW 1.0 mph 5.0 mph 74% 0.00 in 0.00 W/m2
07:40 18.9 °F 12.0 °F 30.34 in Calm   4.0 mph 74% 0.00 in 7.00 W/m2
07:45 18.9 °F 12.3 °F 30.34 in South 4.0 mph 6.0 mph 75% 0.00 in 7.00 W/m2
07:50 18.9 °F 12.3 °F 30.34 in South 2.0 mph 6.0 mph 75% 0.00 in 9.00 W/m2
07:55 19.0 °F 12.7 °F 30.34 in South 3.0 mph 6.0 mph 76% 0.00 in 12.00 W/m2
08:00 19.0 °F 12.7 °F 30.34 in South 3.0 mph 6.0 mph 76% 0.00 in 14.00 W/m2
08:06 19.1 °F 12.8 °F 30.34 in South 5.0 mph 6.0 mph 76% 0.00 in 16.00 W/m2
08:11 19.2 °F 12.9 °F 30.34 in Calm   6.0 mph 76% 0.00 in 18.00 W/m2
08:16 19.3 °F 13.0 °F 30.34 in Calm   3.0 mph 76% 0.00 in 21.00 W/m2
08:21 19.5 °F 13.2 °F 30.34 in Calm     76% 0.00 in 23.00 W/m2
08:26 19.6 °F 13.0 °F 30.34 in Calm     75% 0.00 in 25.00 W/m2
08:31 19.8 °F 13.2 °F 30.34 in Calm     75% 0.00 in 26.00 W/m2
08:36 20.1 °F 13.2 °F 30.34 in Calm     74% 0.00 in 30.00 W/m2
08:41 20.5 °F 13.2 °F 30.34 in Calm     73% 0.00 in 35.00 W/m2
08:46 20.8 °F 14.1 °F 30.35 in Calm     75% 0.00 in 35.00 W/m2
08:51 21.1 °F 14.7 °F 30.35 in Calm     76% 0.00 in 33.00 W/m2
Chelsea Cove, Bountiful, UT
Compliments of Weather Underground - 1 mb